Terminal Aerodrome Forecast
Issued by NWS Louisville, KY

Home | Current Version | Previous Version | Text Only | Print | Product List | Glossary On
Versions: 1 2 3 4 5 6 7 8 9 10 11 12 13 14 15 16 17 18
161
FTUS43 KLMK 211733
TAFLEX
TAF
KLEX 211733Z 2118/2218 21008KT P6SM SCT040
     FM212200 18008KT P6SM VCTS BKN040CB
      TEMPO 2123/2203 VRB15G35KT 1SM TSRA BKN010CB
     FM220400 18004KT P6SM BKN060 BKN250
     FM221500 21007KT P6SM VCSH BKN030 BKN250=

USA.gov is the U.S. government's official web portal to all federal, state and local government web resources and services.